Avery Island, Louisiana
Current Conditions -  °F | °C
As of 7:53 PM on Saturday 25 Oct 2014 (Local Time) from KARA Reporting Station
Clear Clear  
Wind Chill: 65°   Ceiling: Unl
Heat Index: 65°   Visibility: 10mi
Dew Point: 56°   Wind: 0mph
Humidity: 73%   Direction: NA
Pressure: 30.1"   Gusts: NA
Location:  29.91°N, 91.91°W
Report Text: KARA 260053Z 00000KT 10SM CLR 18/13 A3010 RMK AO2 SLP192 T01830133 $
Loading
Personal Weather Stations






























Interactive Weather Map
Tropical Storm Tracking
New forecast layout! Learn more

10-Day Weather Forecast

Advertisements
Track Severe Weather on mobile